SAEZ

Ministro Pistarini International Airport

Buenos Aires, Argentina
TAF SAEZ 162300Z 1700/1724 12005KT CAVOK TX28/1718Z TN18/1709Z BECMG 1703/1705 16015G25KT 9999 SCT020 BKN100 TEMPO 1710/1714 8000 SHRA BECMG 1716/1718 09015KT CAVOK
Issued Valid From Valid To
Jan-16 @ 23:00 UTC
(6 hours ago)
Jan-17 @ 00:00 UTC
(5 hours ago)
Jan-18 @ 00:00 UTC
(in 19 hours)
Expired Click to View Jan-17 @ 00:00 to Jan-17 @ 03:00
TAF SAEZ 162300Z 1700/1724 12005KT CAVOK TX28/1718Z TN18/1709Z
Wind Visibility Clouds
120° at 5 knots 10,000+ meters
  • No significant clouds
Becoming Jan-17 @ 03:00 to Jan-17 @ 16:00
BECMG 1703/1705 16015G25KT 9999 SCT020 BKN100
Wind Visibility Clouds
160° at 15 knots
 Gusting to 25 knots
10,000+ meters
  • Scattered at 2,000' AGL
  • Broken at 10,000' AGL
Temporary Jan-17 @ 10:00 to Jan-17 @ 14:00
TEMPO 1710/1714 8000 SHRA
Visibility Conditions
7,998 meters
  • Rain
Becoming Jan-17 @ 16:00 to Jan-18 @ 00:00
BECMG 1716/1718 09015KT CAVOK
Wind Visibility Clouds Conditions
90° at 15 knots 10,000+ meters
  • No significant clouds
TAF SAEZ 162300Z 1700/1724 12005KT CAVOK TX28/1718Z TN18/1709Z BECMG 1703/1705 16015G25KT 9999 SCT020 BKN100 TEMPO 1710/1714 8000 SHRA BECMG 1716/1718 09015KT CAVOK
Issued Jan-16 @ 23:00 UTC
(6 hours ago)
Valid From Jan-17 @ 00:00 UTC
(5 hours ago)
Valid To Jan-18 @ 00:00 UTC
(in 19 hours)
Jan-17 @ 00:00 - Jan-17 @ 03:00
Wind Visibility
120° at 5 knots 10,000+ meters
Clouds
  • No significant clouds
Becoming Jan-17 @ 03:00 - Jan-17 @ 16:00
Wind Visibility
160° at 15 knots
 Gusting to 25 knots
10,000+ meters
Clouds
  • Scattered at 2,000' AGL
  • Broken at 10,000' AGL
Temporary Jan-17 @ 10:00 - Jan-17 @ 14:00
Conditions
  • Rain
Becoming Jan-17 @ 16:00 - Jan-18 @ 00:00
Wind Visibility
90° at 15 knots 10,000+ meters
Clouds
  • No significant clouds
Conditions